createdAt,value
2022-12-15T00:02:10.484Z,84.75
2022-12-15T00:04:55.256Z,85.14
2022-12-15T00:07:40.082Z,85.10
2022-12-15T00:10:25.358Z,85.33
2022-12-15T00:13:10.222Z,85.32
2022-12-15T00:15:55.079Z,85.55
2022-12-15T00:18:39.902Z,85.77
2022-12-15T00:21:25.149Z,84.77
2022-12-15T00:24:09.732Z,84.25
2022-12-15T00:26:54.494Z,84.66
2022-12-15T00:29:39.198Z,85.08
2022-12-15T00:32:23.844Z,85.48
2022-12-15T00:35:08.421Z,85.58
2022-12-15T00:37:53.174Z,86.23
2022-12-15T00:40:19.450Z,86.42
2022-12-15T00:42:45.746Z,87.03
2022-12-15T00:45:16.151Z,87.15
2022-12-15T00:47:42.430Z,87.55
2022-12-15T00:50:27.727Z,87.75
2022-12-15T00:53:12.581Z,88.35
2022-12-15T00:55:57.122Z,87.79
2022-12-15T00:58:41.849Z,87.87
2022-12-15T01:01:28.430Z,88.03
2022-12-15T01:04:13.609Z,88.65
2022-12-15T01:06:58.333Z,89.31
2022-12-15T01:09:43.090Z,88.97
2022-12-15T01:12:27.775Z,89.34
2022-12-15T01:15:12.550Z,88.71
2022-12-15T01:17:57.274Z,87.30
2022-12-15T01:20:23.562Z,87.42
2022-12-15T01:22:55.710Z,87.49
2022-12-15T01:25:24.703Z,87.73
2022-12-15T01:27:51.665Z,88.12
2022-12-15T01:30:21.695Z,88.53
2022-12-15T01:32:48.385Z,88.83
2022-12-15T01:35:14.734Z,89.14
2022-12-15T01:37:41.020Z,89.62
2022-12-15T01:40:30.032Z,89.72
2022-12-15T01:42:56.290Z,90.29
2022-12-15T01:45:25.209Z,90.54
2022-12-15T01:47:54.978Z,90.71
2022-12-15T01:50:22.378Z,90.83
2022-12-15T01:52:49.722Z,90.47
2022-12-15T01:55:17.835Z,90.19
2022-12-15T01:57:46.678Z,90.23
2022-12-15T02:00:14.117Z,90.03
2022-12-15T02:02:41.281Z,89.68
2022-12-15T02:05:08.559Z,89.65
2022-12-15T02:07:34.905Z,89.51
2022-12-15T02:10:04.178Z,89.41
2022-12-15T02:12:36.454Z,89.57
2022-12-15T02:15:20.326Z,90.01
2022-12-15T02:17:54.083Z,90.17
2022-12-15T02:20:26.434Z,90.32
2022-12-15T02:23:29.374Z,90.36
2022-12-15T02:26:07.950Z,90.15
2022-12-15T02:29:09.019Z,89.59
2022-12-15T02:31:50.583Z,89.51
2022-12-15T02:34:35.393Z,89.17
2022-12-15T02:37:06.674Z,88.40
2022-12-15T02:39:32.988Z,88.13
2022-12-15T02:41:59.363Z,88.49
2022-12-15T02:44:44.241Z,89.04
2022-12-15T02:47:19.774Z,88.93
2022-12-15T02:49:49.878Z,89.29
2022-12-15T02:52:56.853Z,89.75
2022-12-15T02:55:46.622Z,90.10
2022-12-15T02:58:46.326Z,90.10
2022-12-15T03:01:30.048Z,90.10
2022-12-15T03:03:58.049Z,89.84
2022-12-15T03:06:26.742Z,89.50
2022-12-15T03:08:52.982Z,89.34
2022-12-15T03:11:19.402Z,89.39
2022-12-15T03:13:45.813Z,89.60
2022-12-15T03:16:12.184Z,89.78
2022-12-15T03:18:38.540Z,89.68
2022-12-15T03:21:04.919Z,90.05
2022-12-15T03:23:31.430Z,90.18
2022-12-15T03:25:57.924Z,90.38
2022-12-15T03:28:24.403Z,90.98
2022-12-15T03:30:50.917Z,90.90
2022-12-15T03:33:17.319Z,91.36
2022-12-15T03:35:43.634Z,91.76
2022-12-15T03:38:09.945Z,91.89
2022-12-15T03:40:36.226Z,92.10
2022-12-15T03:43:02.529Z,92.11
2022-12-15T03:45:29.385Z,92.30
2022-12-15T03:47:57.788Z,92.22
2022-12-15T03:50:26.695Z,92.16
2022-12-15T03:52:55.443Z,92.17
2022-12-15T03:55:22.683Z,92.12
2022-12-15T03:57:49.373Z,92.02
2022-12-15T04:00:16.613Z,92.43
2022-12-15T04:02:43.392Z,92.66
2022-12-15T04:05:16.774Z,92.58
2022-12-15T04:07:43.256Z,92.68
2022-12-15T04:10:11.050Z,92.46
2022-12-15T04:12:39.619Z,92.56
2022-12-15T04:15:07.849Z,92.37
2022-12-15T04:17:34.537Z,92.29
2022-12-15T04:20:09.849Z,92.06
2022-12-15T04:22:40.109Z,92.16
2022-12-15T04:25:27.093Z,91.82
2022-12-15T04:28:12.302Z,91.94
2022-12-15T04:31:00.675Z,91.67
2022-12-15T04:33:45.790Z,91.57
2022-12-15T04:36:32.644Z,92.13
2022-12-15T04:39:22.352Z,91.73
2022-12-15T04:42:07.788Z,91.90
2022-12-15T04:44:52.936Z,91.15
2022-12-15T04:47:37.585Z,89.85
2022-12-15T04:50:22.770Z,89.78
2022-12-15T04:53:07.662Z,89.50
2022-12-15T04:55:56.049Z,89.79
2022-12-15T04:58:41.254Z,89.82
2022-12-15T05:01:26.741Z,89.80
2022-12-15T05:04:11.749Z,90.59
2022-12-15T05:06:56.552Z,91.12
2022-12-15T05:09:41.217Z,90.86
2022-12-15T05:12:25.965Z,90.46
2022-12-15T05:15:10.743Z,90.56
2022-12-15T05:17:55.431Z,90.07
2022-12-15T05:20:40.179Z,89.99
2022-12-15T05:23:25.048Z,89.83
2022-12-15T05:26:09.751Z,89.96
2022-12-15T05:28:54.317Z,90.21
2022-12-15T05:31:39.176Z,90.65
2022-12-15T05:34:05.988Z,90.49
2022-12-15T05:36:33.074Z,90.07
2022-12-15T05:38:59.322Z,89.32
2022-12-15T05:41:25.607Z,89.34
2022-12-15T05:43:51.985Z,89.56
2022-12-15T05:46:18.362Z,89.77
2022-12-15T05:48:44.925Z,88.78
2022-12-15T05:51:12.414Z,87.40
2022-12-15T05:53:40.712Z,87.17
2022-12-15T05:56:12.180Z,86.59
2022-12-15T05:58:44.813Z,86.74
2022-12-15T06:01:14.139Z,86.54
2022-12-15T06:03:41.241Z,86.52
2022-12-15T06:06:09.441Z,86.48
2022-12-15T06:08:37.984Z,86.63
2022-12-15T06:11:04.737Z,85.93
2022-12-15T06:13:34.414Z,85.76
2022-12-15T06:16:21.052Z,85.77
2022-12-15T06:18:50.433Z,86.10
2022-12-15T06:21:19.862Z,86.89
2022-12-15T06:23:47.088Z,87.76
2022-12-15T06:26:29.371Z,88.49
2022-12-15T06:28:58.069Z,88.84
2022-12-15T06:31:25.758Z,89.18
2022-12-15T06:33:59.196Z,89.50
2022-12-15T06:36:28.438Z,90.08
2022-12-15T06:38:54.706Z,90.42
2022-12-15T06:41:22.419Z,90.75
2022-12-15T06:43:50.732Z,90.95
2022-12-15T06:46:17.764Z,91.19
2022-12-15T06:48:45.688Z,91.97
2022-12-15T06:51:17.075Z,92.26
2022-12-15T06:54:04.845Z,92.65
2022-12-15T06:56:36.080Z,92.88
2022-12-15T06:59:04.573Z,93.37
2022-12-15T07:01:32.230Z,93.73
2022-12-15T07:04:02.886Z,93.54
2022-12-15T07:06:36.072Z,93.88
2022-12-15T07:09:03.075Z,93.99
2022-12-15T07:11:29.636Z,94.03
2022-12-15T07:13:55.990Z,93.97
2022-12-15T07:16:23.071Z,93.29
2022-12-15T07:18:50.011Z,92.60
2022-12-15T07:21:16.790Z,91.94
2022-12-15T07:23:59.434Z,91.65
2022-12-15T07:26:26.589Z,90.71
2022-12-15T07:28:53.921Z,91.31
2022-12-15T07:31:20.827Z,90.91
2022-12-15T07:33:48.289Z,91.08
2022-12-15T07:36:15.403Z,91.51
2022-12-15T07:38:41.696Z,91.48
2022-12-15T07:41:09.590Z,91.29
2022-12-15T07:43:36.773Z,91.66
2022-12-15T07:46:04.649Z,91.71
2022-12-15T07:48:31.343Z,91.78
2022-12-15T07:51:02.762Z,91.69
2022-12-15T07:53:34.967Z,91.79
2022-12-15T07:56:08.954Z,91.98
2022-12-15T07:58:36.242Z,92.14
2022-12-15T08:01:05.116Z,92.15
2022-12-15T08:03:32.600Z,91.25
2022-12-15T08:06:12.718Z,91.16
2022-12-15T08:08:40.071Z,90.35
2022-12-15T08:11:11.347Z,90.12
2022-12-15T08:16:25.716Z,89.27
2022-12-15T08:18:52.367Z,89.13
2022-12-15T08:21:18.662Z,89.30
2022-12-15T08:23:45.330Z,89.08
2022-12-15T08:26:14.360Z,88.08
2022-12-15T08:28:41.970Z,88.22
2022-12-15T08:31:10.894Z,88.20
2022-12-15T08:33:38.091Z,86.60
2022-12-15T08:36:07.284Z,86.33
2022-12-15T08:38:34.519Z,86.41
2022-12-15T08:41:08.631Z,86.83
2022-12-15T08:43:35.344Z,86.21
2022-12-15T08:46:01.885Z,85.78
2022-12-15T08:48:28.206Z,85.32
2022-12-15T08:50:58.844Z,85.66
2022-12-15T08:53:33.573Z,84.76
2022-12-15T08:56:12.251Z,85.24
2022-12-15T08:58:39.398Z,84.79
2022-12-15T09:01:08.744Z,84.53
2022-12-15T09:03:36.156Z,83.71
2022-12-15T09:06:08.742Z,83.44
2022-12-15T09:08:35.203Z,83.01
2022-12-15T09:11:02.610Z,82.72
2022-12-15T09:13:29.862Z,81.35
2022-12-15T09:16:13.738Z,81.38
2022-12-15T09:18:45.327Z,80.95
2022-12-15T09:21:13.074Z,81.43
2022-12-15T09:23:40.067Z,80.46
2022-12-15T09:26:09.492Z,80.89
2022-12-15T09:28:37.601Z,80.75
2022-12-15T09:31:06.201Z,80.90
2022-12-15T09:33:33.359Z,80.35
2022-12-15T09:36:00.567Z,78.90
2022-12-15T09:38:26.886Z,79.16
2022-12-15T09:40:53.466Z,79.75
2022-12-15T09:43:44.803Z,79.67
2022-12-15T09:46:50.162Z,79.33
2022-12-15T09:49:41.826Z,78.41
2022-12-15T09:52:22.143Z,78.62
2022-12-15T09:54:48.510Z,76.88
2022-12-15T09:57:29.900Z,76.95
2022-12-15T10:00:25.270Z,77.23
2022-12-15T10:03:19.224Z,76.75
2022-12-15T10:06:20.139Z,76.89
2022-12-15T10:08:58.238Z,76.82
2022-12-15T10:11:42.599Z,77.49
2022-12-15T10:14:30.694Z,77.90
2022-12-15T10:17:06.234Z,78.21
2022-12-15T10:19:50.694Z,78.62
2022-12-15T10:22:23.547Z,79.35
2022-12-15T10:27:39.256Z,80.52
2022-12-15T10:30:09.326Z,81.50
2022-12-15T10:33:11.559Z,80.69
2022-12-15T10:35:39.809Z,80.91
2022-12-15T10:38:21.947Z,79.35
2022-12-15T10:40:58.556Z,77.80
2022-12-15T10:43:33.818Z,77.61
2022-12-15T10:46:13.288Z,76.94
2022-12-15T10:48:43.960Z,75.77
2022-12-15T10:51:18.877Z,75.95
2022-12-15T10:54:00.143Z,76.87
2022-12-15T10:56:33.181Z,77.51
2022-12-15T10:59:04.436Z,77.80
2022-12-15T11:01:34.122Z,78.79
2022-12-15T11:04:00.943Z,78.84
2022-12-15T11:06:31.500Z,79.52
2022-12-15T11:09:26.382Z,79.79
2022-12-15T11:12:12.408Z,79.90
2022-12-15T11:14:51.159Z,79.80
2022-12-15T11:17:20.394Z,80.15
2022-12-15T11:19:46.695Z,80.68
2022-12-15T11:22:21.354Z,80.84
2022-12-15T11:24:52.835Z,80.06
2022-12-15T11:27:28.406Z,79.18
2022-12-15T11:30:03.632Z,78.99
2022-12-15T11:32:34.450Z,78.31
2022-12-15T11:35:01.227Z,78.21
2022-12-15T11:40:41.289Z,77.09
2022-12-15T11:43:37.508Z,77.07
2022-12-15T11:46:21.277Z,77.21
2022-12-15T11:49:05.979Z,76.57
2022-12-15T11:51:50.055Z,76.54
2022-12-15T11:54:31.982Z,77.17
2022-12-15T11:57:14.630Z,77.02
2022-12-15T12:00:10.328Z,76.99
2022-12-15T12:02:45.371Z,76.60
2022-12-15T12:05:48.262Z,76.14
2022-12-15T12:08:51.147Z,76.20
2022-12-15T12:11:32.644Z,76.38
2022-12-15T12:14:15.665Z,76.18
2022-12-15T12:16:47.874Z,76.45
2022-12-15T12:19:42.262Z,75.81
2022-12-15T12:22:21.400Z,75.33
2022-12-15T12:24:54.726Z,74.97
2022-12-15T12:27:55.354Z,75.28
2022-12-15T12:30:25.855Z,75.13
2022-12-15T12:33:22.858Z,75.35
2022-12-15T12:35:55.991Z,74.41
2022-12-15T12:38:31.308Z,72.94
2022-12-15T12:41:16.638Z,72.78
2022-12-15T12:43:51.970Z,73.59
2022-12-15T12:46:40.991Z,73.55
2022-12-15T12:49:13.329Z,72.51
2022-12-15T12:51:41.591Z,72.00
2022-12-15T12:54:36.734Z,71.98
2022-12-15T12:57:12.030Z,72.20
2022-12-15T12:59:56.403Z,72.56
2022-12-15T13:02:25.595Z,72.96
2022-12-15T13:04:57.858Z,73.34
2022-12-15T13:07:40.667Z,73.32
2022-12-15T13:10:21.261Z,73.99
2022-12-15T13:12:52.638Z,74.64
2022-12-15T13:15:28.783Z,75.56
2022-12-15T13:18:04.667Z,75.42
2022-12-15T13:20:33.263Z,74.94
2022-12-15T13:23:23.851Z,75.73
2022-12-15T13:25:56.519Z,76.39
2022-12-15T13:28:42.523Z,76.22
2022-12-15T13:31:41.812Z,76.84
2022-12-15T13:34:18.176Z,77.30
2022-12-15T13:36:52.503Z,77.49
2022-12-15T13:39:34.971Z,77.82
2022-12-15T13:42:32.131Z,77.55
2022-12-15T13:44:51.716Z,77.73
2022-12-15T13:47:29.018Z,77.88
2022-12-15T13:50:02.093Z,78.45
2022-12-15T13:53:16.266Z,78.81
2022-12-15T13:55:32.591Z,79.60
2022-12-15T13:58:20.527Z,80.55
2022-12-15T14:01:01.080Z,80.76
2022-12-15T14:03:27.581Z,81.42
2022-12-15T14:05:59.133Z,81.72
2022-12-15T14:08:29.094Z,82.14
2022-12-15T14:10:58.694Z,82.72
2022-12-15T14:13:28.568Z,83.00
2022-12-15T14:16:02.985Z,83.14
2022-12-15T14:18:31.910Z,83.57
2022-12-15T14:20:59.723Z,83.78
2022-12-15T14:23:57.996Z,84.50
2022-12-15T14:26:31.586Z,84.91
2022-12-15T14:29:03.139Z,85.03
2022-12-15T14:31:29.960Z,85.52
2022-12-15T14:34:11.598Z,85.69
2022-12-15T14:36:40.695Z,85.81
2022-12-15T14:39:18.125Z,86.40
2022-12-15T14:41:48.920Z,86.71
2022-12-15T14:44:31.230Z,87.01
2022-12-15T14:47:08.446Z,87.29
2022-12-15T14:49:43.537Z,87.51
2022-12-15T14:52:27.035Z,87.97
2022-12-15T14:57:47.081Z,88.74
2022-12-15T15:00:33.699Z,89.04
2022-12-15T15:03:04.785Z,77.93
2022-12-15T15:05:49.679Z,89.23
2022-12-15T15:08:28.988Z,89.57
2022-12-15T15:11:20.502Z,89.61
2022-12-15T15:13:47.283Z,89.93
2022-12-15T15:16:17.193Z,89.87
2022-12-15T15:18:48.407Z,90.36
2022-12-15T15:21:38.839Z,90.60
2022-12-15T15:24:11.114Z,91.12
2022-12-15T15:26:38.318Z,91.31
2022-12-15T15:29:34.125Z,91.33
2022-12-15T15:32:06.329Z,91.49
2022-12-15T15:34:32.669Z,91.63
2022-12-15T15:37:01.963Z,91.41
2022-12-15T15:39:28.298Z,91.89
2022-12-15T15:41:54.638Z,91.62
2022-12-15T15:44:20.939Z,91.97
2022-12-15T15:46:51.905Z,92.09
2022-12-15T15:49:21.626Z,92.30
2022-12-15T15:51:48.335Z,92.23
2022-12-15T15:54:18.362Z,92.17
2022-12-15T15:56:44.640Z,92.48
2022-12-15T15:59:13.732Z,91.69
2022-12-15T16:01:40.447Z,91.91
2022-12-15T16:04:06.903Z,91.69
2022-12-15T16:06:33.598Z,91.94
2022-12-15T16:08:59.996Z,92.01
2022-12-15T16:11:30.100Z,92.09
2022-12-15T16:13:56.658Z,92.96
2022-12-15T16:16:27.177Z,92.47
2022-12-15T16:18:53.537Z,92.08
2022-12-15T16:21:24.860Z,91.94
2022-12-15T16:23:51.349Z,92.18
2022-12-15T16:26:26.140Z,91.85
2022-12-15T16:28:52.503Z,91.81
2022-12-15T16:31:32.903Z,92.25
2022-12-15T16:34:04.643Z,91.91
2022-12-15T16:36:34.998Z,92.62
2022-12-15T16:39:01.368Z,92.25
2022-12-15T16:41:28.735Z,92.30
2022-12-15T16:43:55.033Z,92.67
2022-12-15T16:46:21.638Z,92.35
2022-12-15T16:48:48.043Z,92.31
2022-12-15T16:51:38.811Z,92.15
2022-12-15T16:54:05.893Z,91.86
2022-12-15T16:56:32.720Z,92.20
2022-12-15T16:59:31.004Z,92.73
2022-12-15T17:01:46.061Z,93.14
2022-12-15T17:04:12.584Z,93.38
2022-12-15T17:06:39.188Z,92.84
2022-12-15T17:09:06.353Z,92.33
2022-12-15T17:11:32.734Z,91.95
2022-12-15T17:14:00.670Z,91.89
2022-12-15T17:16:28.268Z,92.00
2022-12-15T17:18:54.669Z,91.80
2022-12-15T17:21:27.462Z,91.91
2022-12-15T17:23:57.594Z,91.64
2022-12-15T17:26:29.755Z,91.44
2022-12-15T17:29:00.963Z,91.68
2022-12-15T17:31:33.194Z,92.12
2022-12-15T17:34:02.323Z,92.67
2022-12-15T17:36:28.782Z,92.67
2022-12-15T17:38:57.967Z,92.52
2022-12-15T17:41:50.739Z,92.40
2022-12-15T17:44:32.851Z,92.86
2022-12-15T17:47:01.069Z,93.40
2022-12-15T17:49:33.069Z,92.59
2022-12-15T17:52:04.222Z,92.54
2022-12-15T17:54:30.477Z,92.08
2022-12-15T17:56:56.773Z,91.82
2022-12-15T17:59:23.125Z,92.07
2022-12-15T18:01:49.649Z,92.20
2022-12-15T18:04:16.018Z,92.15
2022-12-15T18:06:44.027Z,92.52
2022-12-15T18:09:17.883Z,92.99
2022-12-15T18:11:46.533Z,92.05
2022-12-15T18:14:15.076Z,92.44
2022-12-15T18:16:42.017Z,92.33
2022-12-15T18:19:08.364Z,92.47
2022-12-15T18:21:34.854Z,92.68
2022-12-15T18:24:01.360Z,92.08
2022-12-15T18:26:27.872Z,91.87
2022-12-15T18:28:54.371Z,91.63
2022-12-15T18:31:27.843Z,91.37
2022-12-15T18:34:01.019Z,91.52
2022-12-15T18:36:30.521Z,92.51
2022-12-15T18:38:56.806Z,91.55
2022-12-15T18:41:23.101Z,91.37
2022-12-15T18:43:50.085Z,91.04
2022-12-15T18:46:18.877Z,91.25
2022-12-15T18:48:45.280Z,91.01
2022-12-15T18:51:16.831Z,91.55
2022-12-15T18:53:43.689Z,91.64
2022-12-15T18:56:12.299Z,91.21
2022-12-15T18:58:39.470Z,92.58
2022-12-15T19:01:10.758Z,92.23
2022-12-15T19:03:38.591Z,92.27
2022-12-15T19:06:10.756Z,91.94
2022-12-15T19:08:39.443Z,92.34
2022-12-15T19:11:13.259Z,92.52
2022-12-15T19:13:39.785Z,93.12
2022-12-15T19:16:12.961Z,91.90
2022-12-15T19:18:57.697Z,91.76
2022-12-15T19:21:47.556Z,91.20
2022-12-15T19:24:15.529Z,92.48
2022-12-15T19:26:42.179Z,91.90
2022-12-15T19:29:19.714Z,91.51
2022-12-15T19:31:46.897Z,91.20
2022-12-15T19:34:14.358Z,91.44
2022-12-15T19:36:41.176Z,91.12
2022-12-15T19:39:17.625Z,90.61
2022-12-15T19:41:44.028Z,90.13
2022-12-15T19:44:17.051Z,90.59
2022-12-15T19:46:44.050Z,90.78
2022-12-15T19:49:10.658Z,90.88
2022-12-15T19:51:37.481Z,90.82
2022-12-15T19:54:03.930Z,90.33
2022-12-15T19:56:30.823Z,89.09
2022-12-15T19:58:57.126Z,88.93
2022-12-15T20:01:23.594Z,88.66
2022-12-15T20:03:52.106Z,89.06
2022-12-15T20:06:26.534Z,88.98
2022-12-15T20:08:56.812Z,89.22
2022-12-15T20:11:31.774Z,89.77
2022-12-15T20:13:58.419Z,89.55
2022-12-15T20:16:25.036Z,89.93
2022-12-15T20:18:53.818Z,89.63
2022-12-15T20:21:22.819Z,90.20
2022-12-15T20:24:00.326Z,89.91
2022-12-15T20:26:29.964Z,89.88
2022-12-15T20:28:57.759Z,90.17
2022-12-15T20:31:25.502Z,89.91
2022-12-15T20:33:53.635Z,90.16
2022-12-15T20:36:26.097Z,90.12
2022-12-15T20:38:53.857Z,90.14
2022-12-15T20:41:23.678Z,89.96
2022-12-15T20:43:50.550Z,89.58
2022-12-15T20:46:22.839Z,89.89
2022-12-15T20:48:50.781Z,89.83
2022-12-15T20:51:28.011Z,90.18
2022-12-15T20:53:56.161Z,89.99
2022-12-15T20:56:23.607Z,90.37
2022-12-15T20:58:51.335Z,90.49
2022-12-15T21:01:21.077Z,90.81
2022-12-15T21:03:50.208Z,91.10
2022-12-15T21:06:18.698Z,90.66
2022-12-15T21:08:45.554Z,90.79
2022-12-15T21:11:21.927Z,90.58
2022-12-15T21:13:49.263Z,90.57
2022-12-15T21:16:19.340Z,90.78
2022-12-15T21:21:36.447Z,90.83
2022-12-15T21:24:13.271Z,91.03
2022-12-15T21:26:39.566Z,91.61
2022-12-15T21:29:16.966Z,91.35
2022-12-15T21:31:44.170Z,90.99
2022-12-15T21:34:10.817Z,90.82
2022-12-15T21:36:38.894Z,91.05
2022-12-15T21:39:06.962Z,90.95
2022-12-15T21:41:34.002Z,91.32
2022-12-15T21:44:00.411Z,91.16
2022-12-15T21:46:28.906Z,91.13
2022-12-15T21:49:14.754Z,91.11
2022-12-15T21:51:47.032Z,91.42
2022-12-15T21:54:18.138Z,91.32
2022-12-15T21:56:47.295Z,91.17
2022-12-15T21:59:15.986Z,91.20
2022-12-15T22:01:42.726Z,90.97
2022-12-15T22:04:18.761Z,91.27
2022-12-15T22:06:50.424Z,91.39
2022-12-15T22:09:18.467Z,91.27
2022-12-15T22:11:48.279Z,91.24
2022-12-15T22:14:24.197Z,91.31
2022-12-15T22:16:50.854Z,91.25
2022-12-15T22:19:17.137Z,91.49
2022-12-15T22:21:43.474Z,91.37
2022-12-15T22:24:10.554Z,91.03
2022-12-15T22:26:38.904Z,90.52
2022-12-15T22:29:15.390Z,90.33
2022-12-15T22:31:42.045Z,90.51
2022-12-15T22:34:16.185Z,91.10
2022-12-15T22:36:43.265Z,90.83
2022-12-15T22:39:14.685Z,90.95
2022-12-15T22:41:44.430Z,90.77
2022-12-15T22:44:21.673Z,90.47
2022-12-15T22:46:49.255Z,90.56
2022-12-15T22:49:27.029Z,91.26
2022-12-15T22:51:53.269Z,91.59
2022-12-15T22:54:23.970Z,91.24
2022-12-15T22:56:58.237Z,90.26
2022-12-15T22:59:31.542Z,89.77
2022-12-15T23:01:58.348Z,90.12
2022-12-15T23:04:25.089Z,89.57
2022-12-15T23:06:51.701Z,89.81
2022-12-15T23:09:18.162Z,89.38
2022-12-15T23:11:44.908Z,89.64
2022-12-15T23:14:14.031Z,90.05
2022-12-15T23:16:40.946Z,89.79
2022-12-15T23:19:08.402Z,89.23
2022-12-15T23:21:35.603Z,89.10
2022-12-15T23:24:01.879Z,89.07
2022-12-15T23:26:28.172Z,89.83
2022-12-15T23:28:55.228Z,89.87
2022-12-15T23:31:21.892Z,90.30
2022-12-15T23:33:48.267Z,90.17
2022-12-15T23:36:14.533Z,90.21
2022-12-15T23:38:40.861Z,90.48
2022-12-15T23:41:07.163Z,91.54
2022-12-15T23:43:34.873Z,90.89
2022-12-15T23:46:05.316Z,90.33
2022-12-15T23:48:37.246Z,89.99
2022-12-15T23:51:11.872Z,89.81
2022-12-15T23:53:39.255Z,89.84
2022-12-15T23:56:11.863Z,89.63
2022-12-15T23:58:39.747Z,90.04
